Time;durP1;ratioP1;P1;durP2;ratioP2;P2;SDS_P1;SDS_P2;PMS_P1;PMS_P2;Temp;Humidity;BMP_temperature;BMP_pressure;BME280_temperature;BME280_humidity;BME280_pressure;Samples;Min_cycle;Max_cycle;Signal;HPM_P1;HPM_P2
2022/10/20 00:01:27;;;;;;;12.80;6.47;;;14.20;57.90;;;;;;5103323;28;20450;-86
2022/10/20 00:03:55;;;;;;;6.97;5.90;;;14.20;57.50;;;;;;5104297;27;20469;-86
2022/10/20 00:06:24;;;;;;;11.87;7.13;;;14.20;57.30;;;;;;5072444;27;20453;-89
2022/10/20 00:08:52;;;;;;;7.63;5.93;;;14.20;57.30;;;;;;5085832;28;20475;-87
2022/10/20 00:11:21;;;;;;;7.13;6.43;;;14.00;57.70;;;;;;5083909;27;20458;-87
2022/10/20 00:13:50;;;;;;;11.13;6.90;;;14.00;57.90;;;;;;5103418;27;21159;-87
2022/10/20 00:16:18;;;;;;;11.93;7.50;;;14.00;57.90;;;;;;5102104;27;20426;-87
2022/10/20 00:18:46;;;;;;;10.83;7.60;;;14.00;58.00;;;;;;5108612;27;20466;-86
2022/10/20 00:21:16;;;;;;;9.83;7.67;;;14.00;57.50;;;;;;5104287;27;21147;-86
2022/10/20 00:23:43;;;;;;;11.17;7.63;;;13.90;57.90;;;;;;5086467;27;21053;-86
2022/10/20 00:26:14;;;;;;;13.70;7.50;;;13.80;57.80;;;;;;5088177;27;20442;-86
2022/10/20 00:28:42;;;;;;;9.70;6.43;;;13.80;57.50;;;;;;5106696;27;20860;-86
2022/10/20 00:31:09;;;;;;;7.60;6.53;;;13.70;57.80;;;;;;5118587;27;20454;-88
2022/10/20 00:33:36;;;;;;;11.47;8.30;;;13.70;57.80;;;;;;5066835;27;20466;-87
2022/10/20 00:36:07;;;;;;;12.20;7.33;;;13.70;57.70;;;;;;5100375;27;20534;-87
2022/10/20 00:38:35;;;;;;;13.23;7.27;;;13.70;57.90;;;;;;5074574;27;20511;-86
2022/10/20 00:41:03;;;;;;;9.43;7.80;;;13.70;57.70;;;;;;5099186;27;20442;-86
2022/10/20 00:43:45;;;;;;;18.70;8.53;;;13.70;57.70;;;;;;5084869;27;20478;-87
2022/10/20 00:46:15;;;;;;;8.60;6.70;;;13.70;57.40;;;;;;5088335;27;21170;-87
2022/10/20 00:48:45;;;;;;;15.17;8.20;;;13.60;57.40;;;;;;5100537;27;20963;-87
2022/10/20 00:51:16;;;;;;;10.83;7.50;;;13.50;57.80;;;;;;5092936;27;21203;-86
2022/10/20 00:53:45;;;;;;;10.27;6.80;;;13.50;57.80;;;;;;5118921;27;20995;-87
2022/10/20 00:56:13;;;;;;;13.90;7.37;;;13.50;57.70;;;;;;5092619;27;20439;-86
2022/10/20 00:58:40;;;;;;;10.17;7.60;;;13.60;57.70;;;;;;5074385;27;20466;-87
2022/10/20 01:01:08;;;;;;;9.63;7.30;;;13.70;57.50;;;;;;5076546;27;20449;-87
2022/10/20 01:03:39;;;;;;;9.20;7.00;;;13.60;57.10;;;;;;5100186;27;20481;-87
2022/10/20 01:06:06;;;;;;;9.93;7.00;;;13.60;57.00;;;;;;5091101;27;20467;-85
2022/10/20 01:08:35;;;;;;;10.60;7.10;;;13.50;57.80;;;;;;5066527;27;21017;-87
2022/10/20 01:11:13;;;;;;;10.90;7.40;;;13.50;57.50;;;;;;5107204;27;20434;-86
2022/10/20 01:13:50;;;;;;;10.57;7.93;;;13.50;57.50;;;;;;5067593;27;20446;-87
2022/10/20 01:16:24;;;;;;;9.73;7.30;;;13.50;57.40;;;;;;5122035;27;20469;-86
2022/10/20 01:19:00;;;;;;;8.10;7.30;;;13.40;57.60;;;;;;5117583;27;20459;-86
2022/10/20 01:22:13;;;;;;;18.37;7.63;;;13.40;57.80;;;;;;5098003;27;20458;-86
2022/10/20 01:24:50;;;;;;;8.63;6.70;;;13.30;57.50;;;;;;5083065;27;20445;-87
2022/10/20 01:27:33;;;;;;;13.17;7.03;;;13.30;58.10;;;;;;5116404;27;20925;-85
2022/10/20 01:30:11;;;;;;;9.50;7.50;;;13.40;57.50;;;;;;5082767;27;20435;-86
2022/10/20 01:32:52;;;;;;;15.00;8.63;;;13.40;57.20;;;;;;5070746;27;20686;-86
2022/10/20 01:35:27;;;;;;;9.50;7.50;;;13.30;57.40;;;;;;5089346;27;20427;-87
2022/10/20 01:38:03;;;;;;;8.50;7.60;;;13.40;57.30;;;;;;5084571;27;21143;-86
2022/10/20 01:40:36;;;;;;;12.53;7.67;;;13.30;57.40;;;;;;5070834;27;20844;-86
2022/10/20 01:43:08;;;;;;;8.40;7.50;;;13.30;57.60;;;;;;5106676;27;20478;-86
2022/10/20 01:45:39;;;;;;;13.37;7.60;;;13.20;57.50;;;;;;5083172;27;20436;-86
2022/10/20 01:48:09;;;;;;;13.20;8.07;;;13.20;57.90;;;;;;5067940;27;20532;-87
2022/10/20 01:50:38;;;;;;;11.43;7.90;;;13.20;58.00;;;;;;5083398;27;20518;-85
2022/10/20 01:53:06;;;;;;;12.77;7.60;;;13.20;57.90;;;;;;5098752;27;20468;-87
2022/10/20 01:55:34;;;;;;;9.63;7.17;;;13.20;57.50;;;;;;5091735;28;20442;-86
2022/10/20 01:58:20;;;;;;;10.43;7.27;;;13.20;58.20;;;;;;5102550;27;21486;-85
2022/10/20 02:00:49;;;;;;;12.43;8.33;;;13.20;57.90;;;;;;5090257;27;20507;-85
2022/10/20 02:03:41;;;;;;;14.70;7.57;;;13.20;57.80;;;;;;5081917;27;20493;-86
2022/10/20 02:06:20;;;;;;;14.40;7.23;;;13.30;57.50;;;;;;5118126;27;20443;-87
2022/10/20 02:08:50;;;;;;;9.40;7.60;;;13.20;57.20;;;;;;5084953;27;20454;-87
2022/10/20 02:11:26;;;;;;;9.60;7.50;;;13.20;57.00;;;;;;5099055;27;20461;-87
2022/10/20 02:13:57;;;;;;;12.23;7.70;;;13.20;57.30;;;;;;5116136;27;20454;-87
2022/10/20 02:16:28;;;;;;;17.20;8.67;;;13.20;57.10;;;;;;5099900;27;20530;-87
2022/10/20 02:18:58;;;;;;;17.83;7.23;;;13.20;56.90;;;;;;5123930;27;20487;-86
2022/10/20 02:21:25;;;;;;;13.87;7.83;;;13.20;56.80;;;;;;5090449;27;21233;-86
2022/10/20 02:23:54;;;;;;;11.13;8.27;;;13.20;56.80;;;;;;5099183;27;20585;-87
2022/10/20 02:26:24;;;;;;;9.63;7.27;;;13.20;56.80;;;;;;5115561;27;20917;-87
2022/10/20 02:28:58;;;;;;;12.30;7.90;;;13.20;57.50;;;;;;5089468;27;20875;-87
2022/10/20 02:31:26;;;;;;;12.00;8.47;;;13.20;57.10;;;;;;5089903;27;20488;-86
2022/10/20 02:33:54;;;;;;;12.73;8.30;;;13.20;57.20;;;;;;5094839;28;20549;-86
2022/10/20 02:36:27;;;;;;;11.17;7.20;;;13.20;57.00;;;;;;5117241;27;20482;-87
2022/10/20 02:38:54;;;;;;;12.87;8.10;;;13.20;57.00;;;;;;5129747;27;20512;-85
2022/10/20 02:41:22;;;;;;;11.03;7.20;;;13.20;57.10;;;;;;5113750;27;20443;-87
2022/10/20 02:43:49;;;;;;;10.70;6.63;;;13.30;57.10;;;;;;5098824;27;20478;-85
2022/10/20 02:46:17;;;;;;;11.10;8.63;;;13.10;56.90;;;;;;5119681;27;20452;-87
2022/10/20 02:48:44;;;;;;;13.60;8.47;;;13.00;57.40;;;;;;5120609;27;20503;-85
2022/10/20 02:51:12;;;;;;;12.30;8.07;;;12.90;58.00;;;;;;5119716;27;20547;-87
2022/10/20 02:53:39;;;;;;;9.73;7.20;;;12.90;57.90;;;;;;5084161;28;20474;-87
2022/10/20 02:56:07;;;;;;;17.83;9.57;;;12.90;58.20;;;;;;5117657;28;20444;-87
2022/10/20 02:58:34;;;;;;;16.07;7.87;;;13.00;58.00;;;;;;5112862;28;20453;-87
2022/10/20 03:01:01;;;;;;;11.23;8.07;;;13.10;57.70;;;;;;5110956;28;20490;-87
2022/10/20 03:03:30;;;;;;;10.53;7.80;;;13.10;57.70;;;;;;5123380;27;20952;-87
2022/10/20 03:05:57;;;;;;;10.10;7.60;;;13.10;57.50;;;;;;5094819;27;20464;-87
2022/10/20 03:08:24;;;;;;;9.03;8.13;;;13.10;57.20;;;;;;5120098;27;20429;-86
2022/10/20 03:10:51;;;;;;;11.33;8.10;;;12.90;58.30;;;;;;5110079;27;20541;-87
2022/10/20 03:13:18;;;;;;;9.97;7.90;;;12.90;58.80;;;;;;5103701;27;20470;-87
2022/10/20 03:15:45;;;;;;;11.60;7.67;;;12.90;58.40;;;;;;5111952;27;20438;-87
2022/10/20 03:18:12;;;;;;;8.03;7.23;;;12.90;58.80;;;;;;5098601;27;20449;-84
2022/10/20 03:20:41;;;;;;;10.10;7.50;;;13.00;58.00;;;;;;5105981;27;20467;-87
2022/10/20 03:23:08;;;;;;;11.30;8.03;;;12.90;58.10;;;;;;5094275;27;20475;-87
2022/10/20 03:25:35;;;;;;;11.67;8.07;;;12.90;58.20;;;;;;5099707;27;20442;-86
2022/10/20 03:28:02;;;;;;;17.90;7.87;;;13.00;58.10;;;;;;5104604;27;20449;-86
2022/10/20 03:30:29;;;;;;;10.97;8.60;;;13.00;58.00;;;;;;5120082;27;20441;-87
2022/10/20 03:32:56;;;;;;;7.60;6.80;;;13.00;57.60;;;;;;5100628;27;20466;-90
2022/10/20 03:35:23;;;;;;;12.43;9.47;;;13.00;57.50;;;;;;5132182;27;20526;-86
2022/10/20 03:37:52;;;;;;;19.20;11.43;;;13.10;57.70;;;;;;5122074;27;20467;-90
2022/10/20 03:40:19;;;;;;;20.90;11.43;;;13.10;58.00;;;;;;5124118;27;20472;-88
2022/10/20 03:42:47;;;;;;;14.17;10.40;;;13.10;57.00;;;;;;5119862;27;20989;-87
2022/10/20 03:45:14;;;;;;;13.80;8.83;;;13.00;57.00;;;;;;5108021;27;20537;-87
2022/10/20 03:47:41;;;;;;;15.00;9.63;;;12.90;57.40;;;;;;5093851;27;20649;-87
2022/10/20 03:50:09;;;;;;;16.63;11.00;;;12.90;57.30;;;;;;5121960;27;20559;-87
2022/10/20 03:52:36;;;;;;;29.30;15.77;;;12.90;57.30;;;;;;5086327;27;20522;-87
2022/10/20 03:55:05;;;;;;;49.63;21.73;;;12.90;57.30;;;;;;5108371;27;20454;-87
2022/10/20 03:57:32;;;;;;;33.00;18.47;;;12.90;57.20;;;;;;5116132;27;20855;-86
2022/10/20 04:00:00;;;;;;;27.17;16.73;;;12.90;57.20;;;;;;5114133;27;20462;-85
2022/10/20 04:02:33;;;;;;;35.70;18.20;;;12.90;57.60;;;;;;5092356;27;20457;-88
2022/10/20 04:05:01;;;;;;;24.13;13.37;;;12.80;57.00;;;;;;5116725;27;20451;-88
2022/10/20 04:07:28;;;;;;;15.00;10.10;;;12.70;57.40;;;;;;5102585;27;20450;-88
2022/10/20 04:09:55;;;;;;;11.90;9.27;;;12.20;58.40;;;;;;5111728;27;20550;-89
2022/10/20 04:12:24;;;;;;;13.27;8.57;;;12.10;59.00;;;;;;5118452;27;21004;-88
2022/10/20 04:14:52;;;;;;;12.10;8.47;;;12.00;59.00;;;;;;5111061;27;20454;-87
2022/10/20 04:17:19;;;;;;;11.90;8.87;;;12.00;59.20;;;;;;5117744;27;20500;-88
2022/10/20 04:19:46;;;;;;;14.50;9.10;;;12.10;59.20;;;;;;5114637;27;20564;-87
2022/10/20 04:22:13;;;;;;;12.80;8.13;;;12.20;59.30;;;;;;5117007;27;20572;-89
2022/10/20 04:24:40;;;;;;;12.40;7.70;;;12.20;59.20;;;;;;5113542;27;20561;-88
2022/10/20 04:27:07;;;;;;;23.67;9.40;;;12.40;58.80;;;;;;5116962;27;20446;-88
2022/10/20 04:29:36;;;;;;;20.80;10.47;;;12.40;58.20;;;;;;5081182;27;21005;-87
2022/10/20 04:32:04;;;;;;;13.27;10.07;;;12.40;58.10;;;;;;5097547;27;20535;-89
2022/10/20 04:34:31;;;;;;;13.80;9.37;;;12.40;58.20;;;;;;5114316;27;20815;-87
2022/10/20 04:36:58;;;;;;;15.13;10.10;;;12.40;58.50;;;;;;5099725;27;20459;-87
2022/10/20 04:39:25;;;;;;;13.10;9.53;;;12.40;58.10;;;;;;5115032;27;20533;-87
2022/10/20 04:41:52;;;;;;;16.17;9.70;;;12.60;58.10;;;;;;5102297;27;20481;-88
2022/10/20 04:44:19;;;;;;;9.27;8.23;;;12.60;57.80;;;;;;5101191;27;20461;-86
2022/10/20 04:46:48;;;;;;;14.23;10.30;;;12.60;57.50;;;;;;5123087;27;20478;-88
2022/10/20 04:49:15;;;;;;;20.03;11.37;;;12.40;58.30;;;;;;5126190;27;20802;-87
2022/10/20 04:51:42;;;;;;;15.70;11.77;;;12.40;59.00;;;;;;5101891;27;20485;-89
2022/10/20 04:54:09;;;;;;;15.33;11.10;;;12.40;58.70;;;;;;5115555;27;20494;-88
2022/10/20 04:56:36;;;;;;;16.50;10.30;;;12.40;58.80;;;;;;5118250;27;20549;-87
2022/10/20 04:59:03;;;;;;;11.27;9.10;;;12.40;58.90;;;;;;5087725;27;21347;-89
2022/10/20 05:01:31;;;;;;;11.50;9.13;;;12.50;58.80;;;;;;5086778;28;20828;-87
2022/10/20 05:04:00;;;;;;;14.10;9.10;;;12.60;58.40;;;;;;5099058;27;21043;-89
2022/10/20 05:06:29;;;;;;;15.00;9.90;;;12.60;58.40;;;;;;5114336;27;20650;-88
2022/10/20 05:08:58;;;;;;;13.97;10.90;;;12.60;58.70;;;;;;5111138;27;20503;-89
2022/10/20 05:11:27;;;;;;;16.10;9.63;;;12.60;59.30;;;;;;5111585;27;20442;-89
2022/10/20 05:13:54;;;;;;;12.30;9.27;;;12.70;59.40;;;;;;5109084;27;20488;-86
2022/10/20 05:16:22;;;;;;;10.67;9.10;;;12.80;59.00;;;;;;5110734;27;20454;-88
2022/10/20 05:18:50;;;;;;;18.03;10.10;;;12.90;59.10;;;;;;5099978;27;20968;-88
2022/10/20 05:21:21;;;;;;;12.93;9.23;;;12.90;59.30;;;;;;5072294;27;20549;-88
2022/10/20 05:23:48;;;;;;;13.67;9.50;;;12.90;59.30;;;;;;5115741;27;20554;-88
2022/10/20 05:26:18;;;;;;;17.70;10.87;;;12.90;59.70;;;;;;5088551;27;20439;-88
2022/10/20 05:28:46;;;;;;;17.37;10.50;;;12.90;59.50;;;;;;5080650;27;20519;-88
2022/10/20 05:31:15;;;;;;;16.80;9.57;;;13.00;59.50;;;;;;5072994;27;20530;-86
2022/10/20 05:33:44;;;;;;;15.03;10.57;;;12.90;59.40;;;;;;5081623;28;20587;-87
2022/10/20 05:36:13;;;;;;;13.43;9.30;;;12.90;59.60;;;;;;5091165;27;20458;-86
2022/10/20 05:38:42;;;;;;;17.90;12.70;;;13.00;59.40;;;;;;5070904;27;20481;-87
2022/10/20 05:41:11;;;;;;;16.53;11.60;;;13.00;59.50;;;;;;5101285;27;20467;-87
2022/10/20 05:43:38;;;;;;;15.90;11.10;;;13.10;59.40;;;;;;5082109;27;20481;-87
2022/10/20 05:46:06;;;;;;;12.20;9.70;;;13.00;59.50;;;;;;5099559;27;20501;-87
2022/10/20 05:48:33;;;;;;;11.13;9.30;;;12.90;59.40;;;;;;5081366;27;20442;-88
2022/10/20 05:51:08;;;;;;;18.97;10.67;;;12.90;59.80;;;;;;5111952;27;20564;-86
2022/10/20 05:53:35;;;;;;;12.97;9.93;;;12.90;60.70;;;;;;5106573;27;20579;-87
2022/10/20 05:56:04;;;;;;;18.30;9.93;;;13.00;60.10;;;;;;5079230;27;20496;-88
2022/10/20 05:58:31;;;;;;;13.90;10.20;;;13.20;60.00;;;;;;5093560;27;20453;-86
2022/10/20 06:01:09;;;;;;;14.60;9.67;;;13.20;59.80;;;;;;5114486;27;20498;-88
2022/10/20 06:03:36;;;;;;;16.30;11.30;;;13.30;59.90;;;;;;5086368;27;20465;-87
2022/10/20 06:06:04;;;;;;;13.53;10.47;;;13.30;59.80;;;;;;5099989;27;20929;-87
2022/10/20 06:08:32;;;;;;;22.13;11.90;;;13.40;59.70;;;;;;5104448;27;20450;-86
2022/10/20 06:11:05;;;;;;;14.00;10.03;;;13.20;59.20;;;;;;5079771;27;20447;-87
2022/10/20 06:13:32;;;;;;;17.73;11.20;;;12.90;59.60;;;;;;5088826;27;20868;-87
2022/10/20 06:16:05;;;;;;;12.77;10.10;;;12.90;60.30;;;;;;5084174;27;20452;-88
2022/10/20 06:18:33;;;;;;;18.50;11.77;;;12.70;60.50;;;;;;5101602;27;20549;-86
2022/10/20 06:21:02;;;;;;;14.67;9.50;;;12.70;61.20;;;;;;5087687;27;20540;-87
2022/10/20 06:23:29;;;;;;;14.97;10.80;;;12.80;61.60;;;;;;5090355;27;20457;-88
2022/10/20 06:26:01;;;;;;;17.40;9.20;;;13.00;61.30;;;;;;5083403;27;20529;-88
2022/10/20 06:28:31;;;;;;;15.07;10.60;;;13.10;61.10;;;;;;5082447;27;20451;-87
2022/10/20 06:30:59;;;;;;;15.70;10.40;;;13.10;61.00;;;;;;5099951;28;20812;-87
2022/10/20 06:33:26;;;;;;;16.83;10.40;;;13.10;60.40;;;;;;5064244;27;20476;-87
2022/10/20 06:35:58;;;;;;;16.13;11.00;;;13.10;60.80;;;;;;5102512;28;20795;-88
2022/10/20 06:38:25;;;;;;;13.23;10.83;;;13.10;61.30;;;;;;5087578;27;20965;-88
2022/10/20 06:40:52;;;;;;;18.43;12.10;;;13.20;60.80;;;;;;5079083;27;20494;-90
2022/10/20 06:43:19;;;;;;;16.03;10.57;;;13.30;60.80;;;;;;5074669;28;20484;-86
2022/10/20 06:45:55;;;;;;;17.30;10.90;;;13.20;60.90;;;;;;5092678;27;20923;-89
2022/10/20 06:48:22;;;;;;;12.13;10.20;;;13.30;60.80;;;;;;5097723;28;20941;-87
2022/10/20 06:50:50;;;;;;;14.43;11.10;;;13.30;60.30;;;;;;5095350;28;21128;-86
2022/10/20 06:53:17;;;;;;;18.53;10.57;;;13.30;60.70;;;;;;5094627;27;20468;-87
2022/10/20 06:55:44;;;;;;;14.40;9.83;;;13.40;60.30;;;;;;5095861;28;20549;-87
2022/10/20 06:58:11;;;;;;;18.93;11.43;;;13.10;60.80;;;;;;5093387;28;21038;-87
2022/10/20 07:00:38;;;;;;;15.70;11.43;;;13.20;61.20;;;;;;5088034;28;20588;-85
2022/10/20 07:03:06;;;;;;;17.10;11.90;;;13.40;61.30;;;;;;5105131;28;20469;-85
2022/10/20 07:05:34;;;;;;;18.43;12.47;;;13.40;61.20;;;;;;5098481;28;20431;-87
2022/10/20 07:08:01;;;;;;;16.33;12.40;;;13.30;60.90;;;;;;5083971;28;20457;-87
2022/10/20 07:10:29;;;;;;;20.30;12.60;;;13.40;61.40;;;;;;5115107;28;20930;-87
2022/10/20 07:12:56;;;;;;;16.90;11.60;;;13.40;61.60;;;;;;5095878;28;20553;-86
2022/10/20 07:15:23;;;;;;;20.00;12.17;;;13.30;60.90;;;;;;5115834;28;21508;-86
2022/10/20 07:17:50;;;;;;;21.90;12.93;;;13.30;62.10;;;;;;5097850;28;20957;-86
2022/10/20 07:20:18;;;;;;;18.03;11.73;;;13.50;62.00;;;;;;5086447;28;21033;-86
2022/10/20 07:22:45;;;;;;;18.27;12.50;;;13.70;61.70;;;;;;5098695;28;21028;-87
2022/10/20 07:25:12;;;;;;;18.57;11.97;;;13.70;61.50;;;;;;5085950;28;20998;-87
2022/10/20 07:27:39;;;;;;;24.80;12.77;;;13.60;61.30;;;;;;5088074;28;20522;-87
2022/10/20 07:30:07;;;;;;;19.30;11.77;;;13.70;62.30;;;;;;5069973;28;20458;-89
2022/10/20 07:32:34;;;;;;;20.77;12.13;;;13.60;61.30;;;;;;5085480;28;20809;-86
2022/10/20 07:35:02;;;;;;;19.93;12.37;;;13.70;61.50;;;;;;5095133;28;21040;-87
2022/10/20 07:37:30;;;;;;;18.80;12.90;;;13.90;61.50;;;;;;5078437;28;20946;-87
2022/10/20 07:39:57;;;;;;;17.43;12.43;;;14.00;61.30;;;;;;5078466;28;20449;-87
2022/10/20 07:42:24;;;;;;;18.03;12.33;;;14.00;61.00;;;;;;5085592;28;20466;-86
2022/10/20 07:44:51;;;;;;;21.13;13.00;;;13.90;61.20;;;;;;5095667;28;20500;-86
2022/10/20 07:47:18;;;;;;;22.50;12.60;;;14.00;61.50;;;;;;5096185;27;20450;-87
2022/10/20 07:49:45;;;;;;;23.03;13.27;;;14.10;61.90;;;;;;5067626;27;20788;-88
2022/10/20 07:52:15;;;;;;;27.13;13.50;;;14.10;61.10;;;;;;5081801;27;20557;-87
2022/10/20 07:54:43;;;;;;;23.63;12.50;;;14.10;61.30;;;;;;5099529;27;20545;-88
2022/10/20 07:57:11;;;;;;;23.43;12.93;;;14.00;61.00;;;;;;5102246;27;20442;-87
2022/10/20 07:59:38;;;;;;;30.37;14.40;;;13.90;61.60;;;;;;5120574;27;20990;-89
2022/10/20 08:02:05;;;;;;;30.77;20.00;;;13.90;62.10;;;;;;5098717;27;20936;-86
2022/10/20 08:04:32;;;;;;;24.93;15.83;;;13.60;63.00;;;;;;5096434;27;20542;-85
2022/10/20 08:06:59;;;;;;;22.40;15.20;;;13.50;63.10;;;;;;5084422;28;20525;-84
2022/10/20 08:09:27;;;;;;;23.70;14.20;;;13.70;63.90;;;;;;5072278;27;20446;-87
2022/10/20 08:11:55;;;;;;;22.37;14.37;;;13.90;63.10;;;;;;5095905;27;20938;-85
2022/10/20 08:14:22;;;;;;;30.13;22.30;;;14.20;62.70;;;;;;5078598;27;20430;-86
2022/10/20 08:16:49;;;;;;;28.03;18.10;;;14.10;62.00;;;;;;5068099;27;20550;-86
2022/10/20 08:19:16;;;;;;;21.30;15.50;;;14.20;62.20;;;;;;5081917;27;20442;-85
2022/10/20 08:21:44;;;;;;;22.20;14.80;;;14.20;61.50;;;;;;5084231;27;20467;-85
2022/10/20 08:24:11;;;;;;;22.17;15.70;;;14.10;62.30;;;;;;5087215;27;20562;-86
2022/10/20 08:26:38;;;;;;;22.50;16.33;;;14.30;61.90;;;;;;5076064;27;21030;-86
2022/10/20 08:29:06;;;;;;;20.90;14.10;;;14.40;61.60;;;;;;5074939;27;20449;-86
2022/10/20 08:31:33;;;;;;;22.93;15.13;;;14.40;62.00;;;;;;5090333;27;21277;-88
2022/10/20 08:34:01;;;;;;;23.27;14.33;;;14.50;61.60;;;;;;5072483;27;20527;-86
2022/10/20 08:36:28;;;;;;;25.63;16.80;;;14.60;61.20;;;;;;5088027;27;20478;-87
2022/10/20 08:38:55;;;;;;;22.03;17.00;;;14.50;61.70;;;;;;5072260;27;20442;-86
2022/10/20 08:41:26;;;;;;;24.10;16.03;;;14.70;61.90;;;;;;5081252;27;20784;-88
2022/10/20 08:43:56;;;;;;;21.53;13.27;;;14.60;61.10;;;;;;5096111;27;20482;-87
2022/10/20 08:46:29;;;;;;;22.00;13.77;;;14.70;61.40;;;;;;5094998;27;20948;-85
2022/10/20 08:48:57;;;;;;;17.30;12.73;;;14.60;60.60;;;;;;5095767;27;20476;-88
2022/10/20 08:51:28;;;;;;;19.10;13.80;;;14.70;61.40;;;;;;5095367;27;20846;-85
2022/10/20 08:53:58;;;;;;;20.17;12.73;;;14.70;61.40;;;;;;5083072;28;20538;-86
2022/10/20 08:56:28;;;;;;;19.73;14.20;;;14.90;61.30;;;;;;5093364;27;20427;-86
2022/10/20 08:58:55;;;;;;;20.23;12.17;;;15.00;60.70;;;;;;5115194;27;21158;-86
2022/10/20 09:01:25;;;;;;;25.27;14.70;;;15.10;61.60;;;;;;5081043;27;20474;-86
2022/10/20 09:03:56;;;;;;;24.17;15.07;;;14.90;61.10;;;;;;5103899;27;20466;-88
2022/10/20 09:06:24;;;;;;;21.33;14.80;;;15.10;60.90;;;;;;5087198;27;20544;-87
2022/10/20 09:08:52;;;;;;;24.20;15.30;;;15.10;60.70;;;;;;5084013;27;20950;-86
2022/10/20 09:11:22;;;;;;;24.47;13.73;;;15.10;61.30;;;;;;5067426;28;20510;-87
2022/10/20 09:13:50;;;;;;;24.30;13.73;;;15.10;60.00;;;;;;5100039;27;20490;-87
2022/10/20 09:16:25;;;;;;;23.03;14.33;;;14.90;60.90;;;;;;5099338;27;20522;-86
2022/10/20 09:18:56;;;;;;;20.73;13.00;;;14.90;61.80;;;;;;5093081;27;20525;-86
2022/10/20 09:21:24;;;;;;;27.50;14.17;;;15.00;60.70;;;;;;5113131;27;20469;-87
2022/10/20 09:23:53;;;;;;;23.37;14.50;;;15.00;61.50;;;;;;5089059;27;20494;-85
2022/10/20 09:26:23;;;;;;;24.53;14.23;;;15.00;61.80;;;;;;5108524;27;20447;-88
2022/10/20 09:29:02;;;;;;;22.90;14.40;;;15.20;61.70;;;;;;5095896;27;20896;-85
2022/10/20 09:31:33;;;;;;;26.30;14.60;;;15.20;61.70;;;;;;5095842;27;20448;-86
2022/10/20 09:34:02;;;;;;;25.33;14.80;;;15.40;61.70;;;;;;5074628;27;20465;-86
2022/10/20 09:36:31;;;;;;;25.63;15.57;;;15.60;60.50;;;;;;5074882;27;21000;-86
2022/10/20 09:38:59;;;;;;;23.13;15.03;;;15.60;59.90;;;;;;5114156;27;20478;-85
2022/10/20 09:41:30;;;;;;;25.10;14.70;;;15.70;60.40;;;;;;5089420;27;20478;-85
2022/10/20 09:44:00;;;;;;;26.20;14.30;;;15.60;60.20;;;;;;5101232;27;21330;-88
2022/10/20 09:46:30;;;;;;;25.53;14.60;;;15.50;60.80;;;;;;5084532;27;20455;-86
2022/10/20 09:48:58;;;;;;;24.57;15.43;;;15.70;60.00;;;;;;5081958;27;20536;-85
2022/10/20 09:51:28;;;;;;;25.23;14.87;;;15.40;60.40;;;;;;5092515;27;20451;-86
2022/10/20 09:53:59;;;;;;;23.80;14.73;;;15.40;61.00;;;;;;5112581;27;20969;-85
2022/10/20 09:56:28;;;;;;;24.03;13.80;;;15.70;60.50;;;;;;5062980;27;20435;-84
2022/10/20 09:58:57;;;;;;;19.10;12.80;;;15.70;60.20;;;;;;5094078;28;21001;-85
2022/10/20 10:01:24;;;;;;;19.80;12.63;;;15.80;60.10;;;;;;5108965;27;20443;-85
2022/10/20 10:03:55;;;;;;;17.97;13.07;;;15.60;60.30;;;;;;5090628;28;20985;-85
2022/10/20 10:06:31;;;;;;;26.33;14.73;;;15.70;60.80;;;;;;5100035;27;20434;-84
2022/10/20 10:09:00;;;;;;;23.30;15.10;;;15.70;60.00;;;;;;5108983;27;20529;-84
2022/10/20 10:11:32;;;;;;;22.80;14.77;;;15.80;60.60;;;;;;5110743;27;20458;-86
2022/10/20 10:14:00;;;;;;;26.30;15.30;;;16.10;60.00;;;;;;5092538;27;20475;-86
2022/10/20 10:16:28;;;;;;;24.00;14.63;;;16.30;59.90;;;;;;5091129;27;20461;-87
2022/10/20 10:18:59;;;;;;;22.23;15.57;;;16.40;59.10;;;;;;5094051;27;20553;-85
2022/10/20 10:21:28;;;;;;;21.67;14.10;;;16.30;59.00;;;;;;5111180;27;20441;-84
2022/10/20 10:23:58;;;;;;;23.37;15.10;;;16.20;59.40;;;;;;5091819;27;20964;-87
2022/10/20 10:26:44;;;;;;;21.30;14.77;;;16.30;59.30;;;;;;5111592;27;20457;-84
2022/10/20 10:29:20;;;;;;;22.77;14.83;;;16.20;59.20;;;;;;5103824;27;21190;-82
2022/10/20 10:31:52;;;;;;;26.53;13.70;;;16.30;59.60;;;;;;5094010;27;20477;-85
2022/10/20 10:34:39;;;;;;;19.40;13.53;;;16.30;59.00;;;;;;5084225;28;20950;-85
2022/10/20 10:37:12;;;;;;;22.90;15.47;;;16.20;59.30;;;;;;5095475;28;20438;-85
2022/10/20 10:39:40;;;;;;;20.10;13.83;;;16.00;59.40;;;;;;5089309;27;20457;-84
2022/10/20 10:42:28;;;;;;;24.20;14.30;;;16.00;59.70;;;;;;5065349;27;20553;-84
2022/10/20 10:45:04;;;;;;;23.20;14.20;;;16.00;60.70;;;;;;5108764;27;20500;-85
2022/10/20 10:47:51;;;;;;;19.93;12.83;;;16.00;60.60;;;;;;5112088;27;20466;-86
2022/10/20 10:50:34;;;;;;;18.67;13.03;;;16.10;60.30;;;;;;5082732;27;21132;-86
2022/10/20 10:53:15;;;;;;;18.70;13.70;;;16.30;60.30;;;;;;5109440;27;20820;-86
2022/10/20 10:55:50;;;;;;;21.90;14.13;;;16.50;60.20;;;;;;5108941;28;20455;-86
2022/10/20 10:58:32;;;;;;;18.03;12.60;;;16.70;59.60;;;;;;5111100;27;20519;-87
2022/10/20 11:01:10;;;;;;;20.70;13.40;;;16.70;59.50;;;;;;5109525;27;20450;-86
2022/10/20 11:03:56;;;;;;;19.50;13.63;;;16.70;59.60;;;;;;5108056;28;20481;-87
2022/10/20 11:06:33;;;;;;;20.53;13.77;;;16.80;59.80;;;;;;5099298;28;20458;-87
2022/10/20 11:09:14;;;;;;;26.83;15.63;;;16.80;59.40;;;;;;5111167;28;20448;-87
2022/10/20 11:12:01;;;;;;;20.33;14.03;;;16.50;59.90;;;;;;5109102;28;20442;-87
2022/10/20 11:14:40;;;;;;;21.40;14.93;;;16.50;60.00;;;;;;5110571;28;20453;-86
2022/10/20 11:17:23;;;;;;;24.63;13.97;;;16.60;60.10;;;;;;5113233;28;20443;-86
2022/10/20 11:20:03;;;;;;;20.47;12.90;;;16.40;60.30;;;;;;5095099;28;20447;-85
2022/10/20 11:22:41;;;;;;;18.90;14.23;;;16.60;60.20;;;;;;5087307;27;21033;-85
2022/10/20 11:25:22;;;;;;;18.50;13.43;;;16.80;59.70;;;;;;5115539;27;20606;-88
2022/10/20 11:27:50;;;;;;;22.23;13.73;;;17.00;59.70;;;;;;5104680;27;20526;-85
2022/10/20 11:30:20;;;;;;;20.63;12.30;;;16.90;59.70;;;;;;5102572;27;20564;-86
2022/10/20 11:32:53;;;;;;;23.53;16.70;;;16.90;59.70;;;;;;5102747;27;20541;-85
2022/10/20 11:35:29;;;;;;;27.17;16.17;;;17.10;59.50;;;;;;5102390;27;20451;-86
2022/10/20 11:38:11;;;;;;;23.50;17.10;;;17.10;59.00;;;;;;5101774;27;20983;-88
2022/10/20 11:40:43;;;;;;;19.80;15.70;;;17.10;59.70;;;;;;5090042;27;20446;-85
2022/10/20 11:43:19;;;;;;;19.50;15.07;;;17.30;59.80;;;;;;5110745;27;20466;-85
2022/10/20 11:45:51;;;;;;;25.03;16.50;;;17.20;59.40;;;;;;5109252;27;20450;-86
2022/10/20 11:48:24;;;;;;;22.70;15.67;;;17.30;59.80;;;;;;5108772;27;20849;-86
2022/10/20 11:51:05;;;;;;;21.13;14.80;;;17.30;60.00;;;;;;5111572;27;20536;-86
2022/10/20 11:54:11;;;;;;;17.93;12.67;;;17.20;59.90;;;;;;5110884;27;20465;-85
2022/10/20 11:57:03;;;;;;;17.77;13.40;;;17.30;60.30;;;;;;5111748;27;20450;-87
2022/10/20 12:00:13;;;;;;;18.60;13.53;;;17.20;60.80;;;;;;5112998;27;20454;-85
2022/10/20 12:03:27;;;;;;;18.47;13.60;;;17.30;60.20;;;;;;5115509;27;20476;-85
2022/10/20 12:06:23;;;;;;;23.80;17.03;;;17.30;60.50;;;;;;5115123;27;20450;-86
2022/10/20 12:09:09;;;;;;;20.50;14.37;;;17.60;60.50;;;;;;5112901;27;20434;-85
2022/10/20 12:11:48;;;;;;;33.13;17.70;;;17.70;59.90;;;;;;5111702;27;20988;-87
2022/10/20 12:14:24;;;;;;;25.73;16.63;;;17.50;60.30;;;;;;5113173;27;20468;-86
2022/10/20 12:17:14;;;;;;;28.13;15.43;;;17.70;60.40;;;;;;5115090;27;20450;-85
2022/10/20 12:19:41;;;;;;;19.73;13.83;;;17.90;59.30;;;;;;5113409;27;21788;-86
2022/10/20 12:22:40;;;;;;;19.00;13.03;;;17.90;59.00;;;;;;5112596;27;20810;-84
2022/10/20 12:25:38;;;;;;;17.70;12.67;;;18.10;59.20;;;;;;5113192;27;20868;-87
2022/10/20 12:28:42;;;;;;;21.83;16.07;;;18.40;59.30;;;;;;5107729;27;20442;-84
2022/10/20 12:31:09;;;;;;;23.33;13.70;;;18.30;58.90;;;;;;5114050;27;20457;-85
2022/10/20 12:33:40;;;;;;;19.30;13.17;;;18.30;58.50;;;;;;5110842;27;20985;-88
2022/10/20 12:36:28;;;;;;;17.43;12.77;;;18.10;58.80;;;;;;5112175;27;20478;-84
2022/10/20 12:39:13;;;;;;;20.43;13.63;;;17.90;59.30;;;;;;5104268;27;20520;-87
2022/10/20 12:41:44;;;;;;;19.70;14.47;;;18.00;59.70;;;;;;5114345;27;20449;-84
2022/10/20 12:44:17;;;;;;;24.60;14.83;;;18.00;59.50;;;;;;5110016;27;20565;-85
2022/10/20 12:46:53;;;;;;;19.33;12.97;;;18.00;59.30;;;;;;5120344;27;20453;-86
2022/10/20 12:49:25;;;;;;;20.03;12.17;;;18.20;59.40;;;;;;5110249;27;20450;-85
2022/10/20 12:51:54;;;;;;;17.93;12.70;;;18.30;59.00;;;;;;5114939;27;20442;-86